createdAt,value
2023-03-29T00:03:07.140Z,4.60
2023-03-29T00:08:14.893Z,4.10
2023-03-29T00:13:18.650Z,4.10
2023-03-29T00:18:23.073Z,4.00
2023-03-29T00:23:26.897Z,4.20
2023-03-29T00:28:30.727Z,3.70
2023-03-29T00:33:34.798Z,3.20
2023-03-29T00:38:39.160Z,2.90
2023-03-29T00:49:00.001Z,2.60
2023-03-29T00:54:07.681Z,2.70
2023-03-29T00:59:16.309Z,2.40
2023-03-29T01:04:40.877Z,2.50
2023-03-29T01:14:59.514Z,3.10
2023-03-29T01:20:11.107Z,2.90
2023-03-29T01:25:20.970Z,2.70
2023-03-29T01:30:32.477Z,11.00
2023-03-29T01:35:44.945Z,17.00
2023-03-29T01:40:48.318Z,15.50
2023-03-29T01:46:11.853Z,10.40
2023-03-29T01:51:28.112Z,9.40
2023-03-29T01:56:37.924Z,9.30
2023-03-29T02:01:50.762Z,8.00
2023-03-29T02:06:55.947Z,5.30
2023-03-29T02:12:02.424Z,4.50
2023-03-29T02:17:20.016Z,5.00
2023-03-29T02:22:28.829Z,4.70
2023-03-29T02:27:32.242Z,5.10
2023-03-29T02:32:46.666Z,3.50
2023-03-29T02:37:54.642Z,4.30
2023-03-29T02:42:58.669Z,4.10
2023-03-29T02:48:06.759Z,4.40
2023-03-29T02:53:15.628Z,3.90
2023-03-29T02:58:18.946Z,2.80
2023-03-29T03:03:22.534Z,3.40
2023-03-29T03:08:26.482Z,3.60
2023-03-29T03:13:29.692Z,3.80
2023-03-29T03:18:33.417Z,2.90
2023-03-29T03:23:37.337Z,4.40
2023-03-29T03:28:40.555Z,3.50
2023-03-29T03:33:43.858Z,5.80
2023-03-29T03:38:47.988Z,10.20
2023-03-29T03:43:51.597Z,20.70
2023-03-29T03:48:55.112Z,8.60
2023-03-29T03:53:58.324Z,4.60
2023-03-29T03:59:01.739Z,4.10
2023-03-29T04:04:05.167Z,3.30
2023-03-29T04:09:09.583Z,2.90
2023-03-29T04:14:12.893Z,3.10
2023-03-29T04:19:16.840Z,3.50
2023-03-29T04:24:20.241Z,2.60
2023-03-29T04:29:23.513Z,3.30
2023-03-29T04:34:27.364Z,2.80
2023-03-29T04:39:32.230Z,2.50
2023-03-29T04:44:35.559Z,3.00
2023-03-29T04:49:40.273Z,5.90
2023-03-29T04:54:43.584Z,3.60
2023-03-29T04:59:47.102Z,3.70
2023-03-29T05:04:50.713Z,4.50
2023-03-29T05:09:54.028Z,3.90
2023-03-29T05:14:58.160Z,3.40
2023-03-29T05:20:01.881Z,3.50
2023-03-29T05:25:06.124Z,3.50
2023-03-29T05:30:10.206Z,3.20
2023-03-29T05:35:13.858Z,4.60
2023-03-29T05:40:17.475Z,2.40
2023-03-29T05:45:20.889Z,4.40
2023-03-29T05:50:25.015Z,3.60
2023-03-29T05:55:28.224Z,5.00
2023-03-29T06:00:34.712Z,6.30
2023-03-29T06:05:38.019Z,9.50
2023-03-29T06:10:42.562Z,8.60
2023-03-29T06:20:51.332Z,12.40
2023-03-29T06:25:55.524Z,10.70
2023-03-29T06:31:03.779Z,11.80
2023-03-29T06:36:08.587Z,6.60
2023-03-29T06:41:12.365Z,5.30
2023-03-29T06:46:17.100Z,4.20
2023-03-29T06:51:22.698Z,4.40
2023-03-29T06:56:26.904Z,7.30
2023-03-29T07:01:30.453Z,9.50
2023-03-29T07:06:36.698Z,6.80
2023-03-29T07:11:40.414Z,4.70
2023-03-29T07:16:44.538Z,5.30
2023-03-29T07:21:48.268Z,3.80
2023-03-29T07:27:03.492Z,6.40
2023-03-29T07:32:08.108Z,6.30
2023-03-29T07:37:11.402Z,4.40
2023-03-29T07:42:14.916Z,3.50
2023-03-29T07:47:19.057Z,4.50
2023-03-29T07:52:22.870Z,5.50
2023-03-29T07:57:27.173Z,3.60
2023-03-29T08:02:30.953Z,4.00
2023-03-29T08:07:34.437Z,2.80
2023-03-29T08:12:38.274Z,3.20
2023-03-29T08:17:42.749Z,2.40
2023-03-29T08:22:46.217Z,2.90
2023-03-29T08:27:49.837Z,3.70
2023-03-29T08:32:55.415Z,3.00
2023-03-29T08:37:58.815Z,2.90
2023-03-29T08:43:17.073Z,2.30
2023-03-29T08:48:54.382Z,1.30
2023-03-29T08:54:05.883Z,0.90
2023-03-29T08:59:23.236Z,0.80
2023-03-29T09:04:33.395Z,1.20
2023-03-29T09:09:37.819Z,1.70
2023-03-29T09:20:14.663Z,2.00
2023-03-29T09:26:16.543Z,1.50
2023-03-29T09:31:27.460Z,1.50
2023-03-29T09:36:37.301Z,1.50
2023-03-29T09:41:57.092Z,1.00
2023-03-29T09:47:08.750Z,1.40
2023-03-29T09:52:16.710Z,1.40
2023-03-29T09:57:20.942Z,2.90
2023-03-29T10:07:40.075Z,2.20
2023-03-29T10:12:50.529Z,2.00
2023-03-29T10:18:10.977Z,1.90
2023-03-29T10:23:18.484Z,1.60
2023-03-29T10:28:22.906Z,1.60
2023-03-29T10:38:36.188Z,1.10
2023-03-29T10:43:49.636Z,1.10
2023-03-29T10:49:18.558Z,2.40
2023-03-29T10:54:24.593Z,1.80
2023-03-29T10:59:29.267Z,1.70
2023-03-29T11:04:40.971Z,1.40
2023-03-29T11:09:44.381Z,1.00
2023-03-29T11:15:03.372Z,1.20
2023-03-29T11:20:39.098Z,1.40
2023-03-29T11:25:56.160Z,1.30
2023-03-29T11:31:06.072Z,1.60
2023-03-29T11:36:16.917Z,1.70
2023-03-29T11:41:26.895Z,1.60
2023-03-29T11:46:58.888Z,2.30
2023-03-29T11:52:36.792Z,1.10
2023-03-29T11:57:56.804Z,1.60
2023-03-29T12:03:11.817Z,1.20
2023-03-29T12:08:18.983Z,2.90
2023-03-29T12:13:32.547Z,1.70
2023-03-29T12:18:45.681Z,2.00
2023-03-29T12:23:50.595Z,1.40
2023-03-29T12:29:17.993Z,1.40
2023-03-29T12:34:36.968Z,2.30
2023-03-29T12:39:41.030Z,1.90
2023-03-29T12:44:50.353Z,2.60
2023-03-29T12:49:59.253Z,2.10
2023-03-29T12:55:17.352Z,2.70
2023-03-29T13:00:32.875Z,1.80
2023-03-29T13:05:37.255Z,1.50
2023-03-29T13:10:43.163Z,3.80
2023-03-29T13:15:47.833Z,2.30
2023-03-29T13:21:12.927Z,2.50
2023-03-29T13:26:46.648Z,2.60
2023-03-29T13:31:59.885Z,3.00
2023-03-29T13:37:21.138Z,3.70
2023-03-29T13:42:25.875Z,1.40
2023-03-29T13:47:43.175Z,1.50
2023-03-29T13:53:37.614Z,1.60
2023-03-29T13:58:51.572Z,2.10
2023-03-29T14:03:57.004Z,1.80
2023-03-29T14:09:06.584Z,1.50
2023-03-29T14:14:10.837Z,3.30
2023-03-29T14:24:27.422Z,3.70
2023-03-29T14:29:32.972Z,2.80
2023-03-29T14:34:36.551Z,3.00
2023-03-29T14:39:41.376Z,3.40
2023-03-29T14:44:45.221Z,1.90
2023-03-29T14:49:49.058Z,3.00
2023-03-29T14:54:58.444Z,5.00
2023-03-29T15:00:26.299Z,2.20
2023-03-29T15:05:40.654Z,3.60
2023-03-29T15:10:44.983Z,3.50
2023-03-29T15:15:53.104Z,2.20
2023-03-29T15:20:56.729Z,3.00
2023-03-29T15:26:16.351Z,2.00
2023-03-29T15:31:24.562Z,2.60
2023-03-29T15:36:28.022Z,2.60
2023-03-29T15:46:34.990Z,3.30
2023-03-29T15:51:38.928Z,3.30
2023-03-29T15:56:52.372Z,2.60
2023-03-29T16:01:56.975Z,3.20
2023-03-29T16:07:01.548Z,4.80
2023-03-29T16:12:05.178Z,4.50
2023-03-29T16:17:08.475Z,4.40
2023-03-29T16:22:11.896Z,3.50
2023-03-29T16:27:15.521Z,3.80
2023-03-29T16:32:19.563Z,2.90
2023-03-29T16:37:23.121Z,3.70
2023-03-29T16:42:29.225Z,3.90
2023-03-29T16:47:32.715Z,3.90
2023-03-29T16:52:38.099Z,3.20
2023-03-29T16:57:42.536Z,3.40
2023-03-29T17:02:49.985Z,5.70
2023-03-29T17:07:53.871Z,9.30
2023-03-29T17:12:57.590Z,8.80
2023-03-29T17:18:01.330Z,13.10
2023-03-29T17:23:04.822Z,6.70
2023-03-29T17:28:08.960Z,5.80
2023-03-29T17:33:13.728Z,4.00
2023-03-29T17:38:17.218Z,5.10
2023-03-29T17:43:21.241Z,5.60
2023-03-29T17:48:25.267Z,5.10
2023-03-29T17:53:28.694Z,4.90
2023-03-29T17:58:32.200Z,4.90
2023-03-29T18:03:35.611Z,4.70
2023-03-29T18:08:39.333Z,4.90
2023-03-29T18:13:44.420Z,4.70
2023-03-29T18:18:48.537Z,5.50
2023-03-29T18:24:00.111Z,4.70
2023-03-29T18:29:03.639Z,5.20
2023-03-29T18:34:07.678Z,5.70
2023-03-29T18:39:13.947Z,5.70
2023-03-29T18:44:18.587Z,7.80
2023-03-29T18:57:31.568Z,5.60
2023-03-29T19:09:07.807Z,7.20
2023-03-29T19:18:07.747Z,4.50
2023-03-29T19:23:11.380Z,3.80
2023-03-29T19:28:14.689Z,4.20
2023-03-29T19:33:18.658Z,5.10
2023-03-29T19:38:22.420Z,4.70
2023-03-29T19:43:26.162Z,5.10
2023-03-29T19:48:29.598Z,5.60
2023-03-29T19:53:33.500Z,14.30
2023-03-29T19:58:37.801Z,11.40
2023-03-29T20:03:43.678Z,11.90
2023-03-29T20:08:47.821Z,18.90
2023-03-29T20:13:51.338Z,20.30
2023-03-29T20:18:56.410Z,7.20
2023-03-29T20:24:00.520Z,5.10
2023-03-29T20:29:03.955Z,5.30
2023-03-29T20:34:07.455Z,4.60
2023-03-29T20:39:12.297Z,4.90
2023-03-29T20:44:18.816Z,5.30
2023-03-29T20:49:26.626Z,5.00
2023-03-29T20:54:30.021Z,4.60
2023-03-29T20:59:34.763Z,5.60
2023-03-29T21:04:38.074Z,5.70
2023-03-29T21:09:42.505Z,5.30
2023-03-29T21:19:52.433Z,5.20
2023-03-29T21:24:56.127Z,5.00
2023-03-29T21:29:59.743Z,5.10
2023-03-29T21:35:03.158Z,3.60
2023-03-29T21:40:08.872Z,5.20
2023-03-29T21:45:12.237Z,6.00
2023-03-29T21:50:16.538Z,4.80
2023-03-29T21:55:19.885Z,4.90
2023-03-29T22:00:23.606Z,5.40
2023-03-29T22:05:27.531Z,4.50
2023-03-29T22:10:33.296Z,5.10
2023-03-29T22:15:36.813Z,5.90
2023-03-29T22:20:40.527Z,4.90
2023-03-29T22:25:44.200Z,5.90
2023-03-29T22:30:47.767Z,4.50
2023-03-29T22:35:51.227Z,5.30
2023-03-29T22:40:55.742Z,5.80
2023-03-29T22:45:59.135Z,6.40
2023-03-29T22:51:03.416Z,6.40
2023-03-29T22:56:09.459Z,4.80
2023-03-29T23:01:13.737Z,10.20
2023-03-29T23:06:17.190Z,10.00
2023-03-29T23:11:20.704Z,7.20
2023-03-29T23:16:24.759Z,7.90
2023-03-29T23:21:28.552Z,7.00
2023-03-29T23:26:31.874Z,7.00
2023-03-29T23:31:36.529Z,6.30
2023-03-29T23:36:39.921Z,8.60
2023-03-29T23:41:43.317Z,9.20
2023-03-29T23:46:47.218Z,8.60
2023-03-29T23:51:50.897Z,9.80
2023-03-29T23:56:54.412Z,11.80
